Portada
METAR-TAF:

METAR-TAF

Aeroports :

Natal, Rio Grande do Norte, Brasil

latitud: 05-46-05S, longitud: 035-22-34W, altitud: 88 m

Observació

L'informe es va fer fa 24 minuts, a les 17:00 UTC
Vent 14 kt del Sud/Sud-Est, variant entre Sud-Est i Sud-Oest
Temperatura 29°C
Humitat 62%
Pressió 1011 hPa
Visibilitat 10 km o més
Núvols disperses a una alçada de 3000 ft

METAR: SBSG 151700Z 16014KT 130V220 9999 SCT030 29/21 Q1011

Hora: 14:24 (17:24 UTC)

Pronòstic

L'informe es va fer fa 8 hores i 24 minuts, a les 09:00 UTC
Pronòstic vàlid del 15 a les 12 UTC al 16 a les 12 UTC
Vent 12 kt del Est/Sud-Est
Visibilitat: 8000 m
Cel ennuvolat a una alçada de 2000 ft
Evolucionant progressivament
l' 15 a les 18 UTC al 15 a les 20 UTC
Vent 7 kt del Sud-Est
Visibilitat: 8000 m
Núvols disperses a una alçada de 2000 ft

TAF: SBSG 150900Z 1512/1612 12012KT 8000 BKN020 TX28/1518Z TN22/1606Z BECMG 1518/1520 13007KT 8000 SCT020 RMK PDE

Observacions i pronòstics meteorològics de més de 4000 aeroports (METAR i TAF).

Les estacions disponibles són els punts grocs i vermells al mapa.

Posi el ratolí al punt desitjat per veure el nom de l'estació.

Feu clic per veure les observacions i els pronòstics meteorològics.

Per canviar el mapa: feu clic els botons verds amb una creu de color negre per apropar; al botó verd amb un guió per allunyar la imatge; o en les fletxes verdes per a mapes adjacents.


METAR-TAF: